| time (UTC) | temp C | wind direction | speed KPH | gust KPH | rain 1hr cm | rain 24hr cm | rain mn cm | humidity % | barometer mb |
| 20260510094555 | 12 | 148 | 0.0 | 0.0 | 0.00 | 0.28 | 0.28 | 91 | 1012.6 |
| 20260510093051 | 13 | 148 | 0.0 | 0.0 | 0.00 | 0.28 | 0.28 | 90 | 1012.4 |
| 20260510091549 | 13 | 148 | 0.0 | 0.0 | 0.00 | 0.28 | 0.28 | 89 | 1012.3 |
| 20260510090046 | 14 | 149 | 0.0 | 0.0 | 0.00 | 0.28 | 0.28 | 86 | 1012.1 |
| 20260510084545 | 14 | 150 | 0.0 | 0.0 | 0.00 | 0.28 | 0.28 | 86 | 1012.1 |
| 20260510083042 | 15 | 149 | 0.0 | 0.0 | 0.00 | 0.28 | 0.28 | 84 | 1011.7 |
| 20260510081541 | 15 | 149 | 0.0 | 3.2 | 0.00 | 0.28 | 0.28 | 81 | 1011.6 |
| 20260510080045 | 15 | 150 | 0.0 | 6.4 | 0.00 | 0.28 | 0.28 | 82 | 1011.6 |
| 20260510074547 | 15 | 146 | 6.4 | 14.5 | 0.00 | 0.33 | 0.28 | 81 | 1011.6 |
| 20260510073047 | 15 | 149 | 14.5 | 20.9 | 0.03 | 0.33 | 0.28 | 80 | 1011.8 |
| 20260510071538 | 16 | 146 | 20.9 | 30.6 | 0.10 | 0.33 | 0.28 | 77 | 1011.9 |
| 20260510070035 | 16 | 141 | 25.7 | 41.8 | 0.28 | 0.33 | 0.28 | 82 | 1012.1 |
| 20260510064548 | 16 | 142 | 29.0 | 40.2 | 0.28 | 0.64 | 0.28 | 84 | 1011.7 |
| 20260510063034 | 15 | 144 | 24.1 | 35.4 | 0.25 | 0.61 | 0.25 | 89 | 1012.2 |
| 20260510061533 | 15 | 137 | 16.1 | 40.2 | 0.18 | 0.53 | 0.18 | 91 | 1012.3 |
| 20260510060026 | 17 | 149 | 8.0 | 16.1 | 0.00 | 0.36 | 0.00 | 86 | 1011.2 |
| 20260510054527 | 17 | 153 | 4.8 | 6.4 | 0.00 | 0.53 | 0.00 | 85 | 1010.3 |
| 20260510053038 | 17 | 152 | 4.8 | 6.4 | 0.00 | 0.53 | 0.00 | 86 | 1010.3 |
| 20260510051528 | 17 | 150 | 3.2 | 8.0 | 0.00 | 0.53 | 0.00 | 85 | 1010.4 |
| 20260510050019 | 17 | 153 | 6.4 | 11.3 | 0.00 | 0.53 | 0.00 | 85 | 1010.4 |
| 20260510044518 | 17 | 155 | 4.8 | 8.0 | 0.00 | 0.71 | 0.53 | 85 | 1010.4 |
| 20260510043018 | 16 | 152 | 8.0 | 11.3 | 0.00 | 0.71 | 0.53 | 88 | 1010.5 |
| 20260510041518 | 16 | 153 | 3.2 | 4.8 | 0.00 | 0.71 | 0.53 | 87 | 1010.5 |
| 20260510040017 | 17 | 153 | 4.8 | 0.0 | 0.00 | 0.00 | 0.53 | 85 | 1010.5 |
| 20260510034517 | 17 | 152 | 4.8 | 8.0 | 0.00 | 0.76 | 0.53 | 86 | 1010.6 |
| 20260510033016 | 16 | 151 | 0.0 | 0.0 | 0.00 | 0.76 | 0.53 | 87 | 1010.5 |
| 20260510031523 | 16 | 152 | 0.0 | 0.0 | 0.00 | 0.76 | 0.53 | 87 | 1010.5 |
| 20260510030015 | 16 | 152 | 0.0 | 0.0 | 0.00 | 0.76 | 0.53 | 82 | 1010.5 |
| 20260510024514 | 16 | 153 | 0.0 | 0.0 | 0.00 | 1.24 | 0.53 | 80 | 1010.5 |
| 20260510023012 | 17 | 151 | 0.0 | 0.0 | 0.00 | 1.24 | 0.53 | 80 | 1010.3 |
| 20260510021516 | 17 | 151 | 0.0 | 0.0 | 0.00 | 1.24 | 0.53 | 77 | 1010.0 |
| 20260510020012 | 17 | 151 | 0.0 | 0.0 | 0.00 | 1.42 | 0.53 | 75 | 1009.7 |
| 20260510014513 | 18 | 151 | 0.0 | 0.0 | 0.00 | 1.42 | 0.53 | 73 | 1009.4 |
| 20260510013010 | 19 | 150 | 0.0 | 0.0 | 0.00 | 1.42 | 0.53 | 70 | 1009.3 |
| 20260510011510 | 21 | 150 | 0.0 | 0.0 | 0.00 | 1.42 | 0.53 | 65 | 1009.0 |
| 20260510010009 | 21 | 153 | 0.0 | 0.0 | 0.00 | 1.52 | 0.53 | 53 | 1008.8 |
| 20260510004509 | 22 | 147 | 0.0 | 0.0 | 0.00 | 1.52 | 0.53 | 53 | 1008.7 |
| 20260510003008 | 22 | 152 | 0.0 | 0.0 | 0.00 | 1.52 | 0.53 | 53 | 1008.5 |
| 20260510001508 | 23 | 148 | 0.0 | 0.0 | 0.00 | 1.52 | 0.53 | 54 | 1008.4 |
| 20260510000008 | 23 | 152 | 0.0 | 11.3 | 0.00 | 1.70 | 0.53 | 58 | 1008.2 |
| 20260509234506 | 23 | 153 | 8.0 | 14.5 | 0.00 | 1.70 | 0.53 | 59 | 1008.2 |
| 20260509233006 | 23 | 150 | 11.3 | 17.7 | 0.00 | 1.70 | 0.53 | 57 | 1008.1 |
| 20260509231507 | 23 | 150 | 9.7 | 17.7 | 0.00 | 1.70 | 0.53 | 58 | 1008.0 |
| 20260509230004 | 23 | 150 | 3.2 | 16.1 | 0.00 | 1.70 | 0.53 | 57 | 1008.0 |
| 20260509224503 | 23 | 153 | 9.7 | 19.3 | 0.00 | 1.70 | 0.53 | 58 | 1008.0 |
| 20260509223002 | 23 | 148 | 4.8 | 19.3 | 0.00 | 1.70 | 0.53 | 56 | 1007.9 |
| 20260509221626 | 23 | 151 | 9.7 | 17.7 | 0.00 | 1.70 | 0.53 | 56 | 1007.9 |
| 20260509220101 | 23 | 150 | 11.3 | 25.7 | 0.00 | 1.70 | 0.53 | 55 | 1007.8 |
| 20260509214605 | 23 | 152 | 11.3 | 20.9 | 0.00 | 1.70 | 0.53 | 53 | 1008.0 |
| 20260509213059 | 23 | 153 | 0.0 | 19.3 | 0.00 | 1.70 | 0.53 | 55 | 1007.9 |
| 20260509211600 | 23 | 150 | 16.1 | 24.1 | 0.00 | 1.70 | 0.53 | 56 | 1008.0 |
| 20260509210057 | 23 | 148 | 14.5 | 24.1 | 0.00 | 1.70 | 0.53 | 55 | 1008.1 |
| 20260509204551 | 23 | 149 | 12.9 | 24.1 | 0.00 | 1.70 | 0.53 | 65 | 1008.1 |
| 20260509203049 | 23 | 148 | 14.5 | 29.0 | 0.00 | 1.70 | 0.53 | 62 | 1008.1 |
| 20260509201548 | 23 | 151 | 19.3 | 25.7 | 0.00 | 1.70 | 0.53 | 59 | 1008.1 |
| 20260509200049 | 22 | 148 | 17.7 | 29.0 | 0.00 | 1.70 | 0.53 | 62 | 1008.4 |
| 20260509194551 | 22 | 153 | 11.3 | 22.5 | 0.00 | 1.70 | 0.53 | 68 | 1008.5 |
| 20260509193041 | 22 | 155 | 16.1 | 24.1 | 0.00 | 1.70 | 0.53 | 67 | 1008.4 |
| 20260509191539 | 21 | 155 | 12.9 | 24.1 | 0.00 | 1.70 | 0.53 | 69 | 1008.5 |
| 20260509190036 | 21 | 152 | 12.9 | 24.1 | 0.00 | 1.70 | 0.53 | 71 | 1008.6 |
| 20260509184537 | 21 | 154 | 14.5 | 24.1 | 0.00 | 1.70 | 0.53 | 71 | 1008.6 |
| 20260509183039 | 20 | 153 | 11.3 | 22.5 | 0.00 | 1.70 | 0.53 | 75 | 1008.6 |
| 20260509181526 | 20 | 156 | 16.1 | 20.9 | 0.00 | 1.70 | 0.53 | 75 | 1008.9 |
| 20260509180024 | 20 | 156 | 16.1 | 0.0 | 0.00 | 0.00 | 0.53 | 80 | 1009.1 |
| 20260509174538 | 18 | 155 | 14.5 | 22.5 | 0.00 | 1.70 | 0.53 | 79 | 1009.4 |
| 20260509173019 | 18 | 156 | 12.9 | 22.5 | 0.00 | 1.70 | 0.53 | 78 | 1009.5 |
| 20260509171515 | 18 | 153 | 11.3 | 22.5 | 0.00 | 1.70 | 0.53 | 81 | 1009.8 |
| 20260509170014 | 17 | 155 | 11.3 | 20.9 | 0.00 | 1.70 | 0.53 | 83 | 1009.9 |
| 20260509164511 | 17 | 151 | 12.9 | 20.9 | 0.00 | 1.70 | 0.53 | 84 | 1010.1 |
| 20260509163009 | 16 | 153 | 12.9 | 19.3 | 0.00 | 1.70 | 0.53 | 84 | 1010.2 |
| 20260509161506 | 16 | 155 | 14.5 | 22.5 | 0.00 | 1.70 | 0.53 | 85 | 1010.2 |
| 20260509160002 | 16 | 154 | 11.3 | 19.3 | 0.00 | 1.70 | 0.53 | 88 | 1010.1 |
| 20260509154606 | 15 | 155 | 9.7 | 16.1 | 0.00 | 1.70 | 0.53 | 89 | 1009.9 |
| 20260509153057 | 15 | 153 | 8.0 | 17.7 | 0.00 | 1.70 | 0.53 | 88 | 1009.8 |
| 20260509151557 | 14 | 153 | 9.7 | 16.1 | 0.00 | 1.70 | 0.53 | 89 | 1009.7 |
| 20260509150056 | 13 | 154 | 9.7 | 17.7 | 0.00 | 1.70 | 0.53 | 90 | 1009.6 |
| 20260509144552 | 14 | 155 | 12.9 | 19.3 | 0.00 | 1.70 | 0.53 | 90 | 1009.4 |
| 20260509143058 | 14 | 151 | 11.3 | 19.3 | 0.00 | 1.70 | 0.53 | 90 | 1009.6 |
| 20260509141558 | 14 | 155 | 12.9 | 19.3 | 0.00 | 1.70 | 0.53 | 91 | 1009.6 |
| 20260509140059 | 14 | 151 | 11.3 | 20.9 | 0.00 | 1.70 | 0.53 | 92 | 1009.5 |
| 20260509134546 | 14 | 154 | 9.7 | 17.7 | 0.00 | 1.70 | 0.53 | 93 | 1009.3 |
| 20260509133043 | 13 | 154 | 6.4 | 14.5 | 0.00 | 1.70 | 0.53 | 94 | 1009.3 |
| 20260509131542 | 13 | 154 | 9.7 | 17.7 | 0.00 | 1.70 | 0.53 | 95 | 1009.3 |
| 20260509130040 | 13 | 155 | 11.3 | 19.3 | 0.00 | 1.70 | 0.53 | 95 | 1009.2 |
| 20260509124539 | 13 | 153 | 6.4 | 11.3 | 0.00 | 1.70 | 0.53 | 96 | 1009.2 |
| 20260509123046 | 12 | 156 | 6.4 | 14.5 | 0.00 | 1.70 | 0.53 | 96 | 1009.2 |
| 20260509121537 | 12 | 153 | 8.0 | 12.9 | 0.00 | 1.70 | 0.53 | 96 | 1009.0 |
| 20260509120038 | 12 | 153 | 6.4 | 12.9 | 0.00 | 1.70 | 0.53 | 96 | 1009.0 |
| 20260509114536 | 12 | 153 | 6.4 | 12.9 | 0.00 | 1.70 | 0.53 | 96 | 1008.8 |
| 20260509113034 | -17 | 0.0 | 0.0 | 0.00 | 1.70 | 0.53 | 1008.9 | ||
| 20260509111530 | -17 | 0.0 | 0.0 | 0.00 | 1.70 | 0.53 | 1008.7 | ||
| 20260509110026 | -17 | 0.0 | 0.0 | 0.00 | 1.70 | 0.53 | 1008.3 | ||
| 20260509104521 | -17 | 0.0 | 0.0 | 0.00 | 1.70 | 0.53 | 1008.2 | ||
| 20260509103016 | -17 | 0.0 | 0.0 | 0.00 | 1.70 | 0.53 | 1008.2 | ||
| 20260509101512 | -17 | 0.0 | 0.0 | 0.00 | 1.70 | 0.53 | 1008.1 | ||
| 20260509100008 | -17 | 0.0 | 0.0 | 0.00 | 1.70 | 0.53 | 1008.0 |